MMMZMMCL

Guest
Details From MMMZ - GENERAL RAFAEL BUELNA INTL
To MMCL - CULIACAN INTL
Flight Number -
Tags generated
Created
Modified
Stats Distance 117 nm / 217 km
Max Altitude 6,000 ft / 1,829 m
Waypoints 4
Social Downloads 0
Likes 0
Share VATSIM

Download

Looking for another format? Having issues loading an existing format? Contact us
Advertisement - Login to hide

Notes

Basic altitude profile: - Ascent Rate: 2500ft/min - Ascent Speed: 250kts - Cruise Altitude: 35000ft - Cruise Speed: 420kts - Descent Rate: 1500ft/min - Descent Speed: 250kts Options: - Use NATs: no - Use PACOTS: no - Use low airways: yes - Use high airways: no

Route

MMMZ MZT V3 CUL MMCL

ID Type Via Altitude Latitude Longitude Leg Dist Tot Dist Heading (true) Name
O MMMZ APT - 0 ft / 0 m 23.16136˚ -106.26470˚ - 0 nm - GENERAL RAFAEL BUELNA INTL
MZT VOR - 100 ft / 30 m 23.16052˚ -106.27096˚ 0 nm 0 nm 262° / 262° MAZATLAN VOR-DME
CUL VOR V3 (AWY-LO) 6,000 ft / 1,829 m 24.76443˚ -107.47728˚ 116 nm 117 nm 326° / 325° CULIACAN VOR-DME
O MMCL APT - 0 ft / 0 m 24.76566˚ -107.47611˚ 0 nm 117 nm 41° / 41° CULIACAN INTL

Altitude Profile

Advertisement - Login to hide

MMMZ

Details ICAO MMMZ (MZT)
Name GENERAL RAFAEL BUELNA INTL
Region Mexico
Timezone America/Mazatlan (UTC-7.0)
Stats Elevation 38 ft / 12 m (AMSL)
Location 23.161355° -106.264697°
Runways 1
Magnetic Variation 7.339° E

METAR

Not found

TAF

TAF MMMZ 120514Z 1206/1312 03005KT P6SM BKN250 TX28/1220Z TN16/1212Z FM121600 23010KT P6SM SCT080 BKN250 FM130400 03005KT P6SM SCT100 OVC250

Decode

Departure Runways

ID Width Length Bearing (true) Bearing (mag) Surface Threshold Offset Overrun Length
08 197 ft / 60 m 8,826 ft / 2,690 m 93.17° 85.83° Asphalt 0 ft / 0 m 175 ft / 53 m
26 197 ft / 60 m 8,826 ft / 2,690 m 273.18° 265.84° Asphalt 0 ft / 0 m 175 ft / 53 m

MMCL

Details ICAO MMCL (CUL)
Name CULIACAN INTL
Region Mexico
Timezone America/Mazatlan (UTC-7.0)
Stats Elevation 108 ft / 33 m (AMSL)
Location 24.765658° -107.476106°
Runways 1
Magnetic Variation 7.842° E

METAR

Not found

TAF

TAF MMCL 120514Z 1206/1306 00000KT P6SM BKN250 FM121800 04010KT P6SM BKN250 FM130200 00000KT P6SM OVC250

Decode

Destination Runways

ID Width Length Bearing (true) Bearing (mag) Surface Threshold Offset Overrun Length
02 148 ft / 45 m 7,568 ft / 2,307 m 32.85° 25.01° Asphalt 0 ft / 0 m 0 ft / 0 m
20 148 ft / 45 m 7,568 ft / 2,307 m 212.86° 205.02° Asphalt 886 ft / 270 m 0 ft / 0 m

Popular Alternatives